Time;durP1;ratioP1;P1;durP2;ratioP2;P2;SDS_P1;SDS_P2;PMS_P1;PMS_P2;Temp;Humidity;BMP_temperature;BMP_pressure;BME280_temperature;BME280_humidity;BME280_pressure;Samples;Min_cycle;Max_cycle;Signal;HPM_P1;HPM_P2
2022/01/16 00:05:28;;;;;;;15.67;8.73;;;;;;;9.29;nan;102497.09;4797766;29;20462;-92
2022/01/16 00:08:00;;;;;;;15.93;9.07;;;;;;;9.23;nan;102367.63;4808514;29;20984;-93
2022/01/16 00:10:47;;;;;;;18.87;10.00;;;;;;;9.30;nan;102355.09;4808161;29;20602;-95
2022/01/16 00:13:46;;;;;;;17.20;10.10;;;;;;;9.29;nan;102330.69;4817218;29;20450;-95
2022/01/16 00:16:39;;;;;;;28.60;10.53;;;;;;;9.25;nan;102327.38;4866735;29;20522;-95
2022/01/16 00:19:55;;;;;;;18.57;8.10;;;;;;;9.22;nan;102285.94;4852823;29;20490;-96
2022/01/16 00:22:33;;;;;;;15.30;8.07;;;;;;;9.18;nan;102210.84;4886179;29;20466;-93
2022/01/16 00:25:13;;;;;;;15.77;7.63;;;;;;;9.08;nan;102193.63;4852456;29;20454;-95
2022/01/16 00:27:44;;;;;;;17.13;8.17;;;;;;;9.14;nan;102258.50;4851423;29;20462;-95
2022/01/16 00:30:13;;;;;;;12.70;7.67;;;;;;;9.18;nan;102281.75;4848687;29;20528;-94
2022/01/16 00:33:19;;;;;;;16.23;8.40;;;;;;;9.17;nan;102312.78;4848817;29;20959;-94
2022/01/16 00:36:01;;;;;;;13.63;7.70;;;;;;;9.19;nan;102327.13;4863361;29;20444;-94
2022/01/16 00:38:34;;;;;;;21.10;8.80;;;;;;;9.02;nan;102385.13;4847985;29;20463;-92
2022/01/16 00:41:12;;;;;;;16.50;7.47;;;;;;;9.12;nan;102440.53;4848411;29;20440;-93
2022/01/16 00:43:40;;;;;;;12.70;6.40;;;;;;;8.99;nan;102392.59;4832967;29;20456;-94
2022/01/16 00:53:21;;;;;;;14.70;6.80;;;;;;;8.87;nan;102314.66;4865035;29;20419;-96
2022/01/16 00:55:55;;;;;;;12.93;6.70;;;;;;;8.88;nan;102345.50;4855350;29;20470;-94
2022/01/16 01:02:06;;;;;;;14.00;5.83;;;;;;;8.96;nan;102420.16;4895860;29;20443;-96
2022/01/16 01:04:51;;;;;;;13.33;7.47;;;;;;;8.85;nan;102393.00;4866466;29;20470;-92
2022/01/16 01:07:29;;;;;;;14.03;7.60;;;;;;;8.96;nan;102425.59;4866354;29;20790;-92
2022/01/16 01:10:31;;;;;;;9.13;5.43;;;;;;;8.98;nan;102431.78;4868602;29;20446;-92
2022/01/16 01:13:21;;;;;;;17.57;6.70;;;;;;;8.85;nan;102401.19;4881009;29;20463;-92
2022/01/16 01:15:52;;;;;;;12.77;7.00;;;;;;;8.94;nan;102422.16;4868150;29;20458;-94
2022/01/16 01:18:32;;;;;;;10.77;6.80;;;;;;;8.96;nan;102438.38;4866334;29;20444;-95
2022/01/16 01:21:16;;;;;;;16.90;8.13;;;;;;;8.87;nan;102431.88;4861966;29;20551;-94
2022/01/16 01:23:49;;;;;;;13.90;7.57;;;;;;;8.93;nan;102442.25;4848873;29;20512;-91
2022/01/16 01:26:31;;;;;;;16.40;7.13;;;;;;;8.89;nan;102402.63;4862568;29;20463;-93
2022/01/16 01:29:28;;;;;;;10.83;6.67;;;;;;;8.90;nan;102403.47;4862706;29;20441;-94
2022/01/16 01:32:46;;;;;;;12.40;6.80;;;;;;;8.89;nan;102413.53;4865139;29;20843;-96
2022/01/16 01:39:36;;;;;;;19.03;8.20;;;;;;;8.85;nan;102458.44;4881967;29;20460;-94
2022/01/16 01:42:12;;;;;;;8.43;5.20;;;;;;;8.68;nan;102431.84;4865889;29;20435;-94
2022/01/16 01:53:40;;;;;;;13.97;5.43;;;;;;;8.73;nan;102465.00;4868292;29;20462;-94
2022/01/16 01:56:10;;;;;;;11.27;5.10;;;;;;;8.66;nan;102472.88;4880654;29;20957;-94
2022/01/16 01:58:44;;;;;;;13.43;4.97;;;;;;;8.70;nan;102472.59;4880384;29;20455;-94
2022/01/16 02:01:13;;;;;;;11.10;4.10;;;;;;;8.76;nan;102467.47;4871456;29;20501;-93
2022/01/16 02:03:45;;;;;;;13.43;5.07;;;;;;;8.71;nan;102469.75;4883747;29;20803;-91
2022/01/16 02:06:37;;;;;;;12.37;4.40;;;;;;;8.69;nan;102455.38;4883826;29;20442;-94
2022/01/16 02:09:11;;;;;;;7.13;4.50;;;;;;;8.70;nan;102440.75;4898427;29;20965;-91
2022/01/16 02:11:42;;;;;;;9.20;4.30;;;;;;;8.58;nan;102420.09;4900144;29;20906;-94
2022/01/16 02:14:28;;;;;;;7.40;3.90;;;;;;;8.53;nan;102417.78;4883450;29;20438;-92
2022/01/16 02:29:12;;;;;;;8.83;3.43;;;;;;;8.56;nan;102444.75;4898505;29;20465;-92
2022/01/16 02:31:41;;;;;;;6.60;3.50;;;;;;;8.57;nan;102456.50;4882203;29;20883;-91
2022/01/16 02:37:06;;;;;;;5.93;3.77;;;;;;;8.48;nan;102444.56;4879736;29;20467;-94
2022/01/16 02:45:05;;;;;;;7.30;3.87;;;;;;;8.56;nan;102450.19;4870551;29;20522;-96
2022/01/16 02:47:18;;;;;;;5.93;3.90;;;;;;;8.55;nan;102459.38;4858949;29;20470;-96
2022/01/16 02:50:03;;;;;;;8.67;3.33;;;;;;;8.50;nan;102439.84;4845964;29;20448;-94
2022/01/16 02:52:33;;;;;;;7.40;3.90;;;;;;;8.52;nan;102447.88;4861068;29;20860;-94
2022/01/16 02:55:15;;;;;;;12.73;4.17;;;;;;;8.39;nan;102423.63;4845583;29;20463;-93
2022/01/16 02:57:44;;;;;;;7.57;3.67;;;;;;;8.49;nan;102420.91;4840037;29;20459;-94
2022/01/16 03:00:19;;;;;;;9.30;4.30;;;;;;;8.39;nan;102411.84;4849321;29;20483;-94
2022/01/16 03:02:52;;;;;;;9.07;3.87;;;;;;;8.30;nan;102400.75;4849408;29;20510;-93
2022/01/16 03:05:28;;;;;;;12.50;4.27;;;;;;;8.31;nan;102407.91;4864305;29;20454;-93
2022/01/16 03:07:57;;;;;;;8.40;3.80;;;;;;;8.35;nan;102400.38;4849221;29;20475;-93
2022/01/16 03:13:31;;;;;;;5.97;3.57;;;;;;;8.41;nan;102407.13;4867621;29;20579;-94
2022/01/16 03:15:59;;;;;;;9.83;4.30;;;;;;;8.38;nan;102396.50;4864880;29;20466;-95
2022/01/16 03:24:05;;;;;;;11.57;3.97;;;;;;;8.26;nan;102393.88;4880145;29;20966;-95
2022/01/16 03:26:45;;;;;;;7.10;4.40;;;;;;;8.27;nan;102389.28;4846583;29;20458;-96
2022/01/16 03:30:01;;;;;;;8.30;3.97;;;;;;;8.33;nan;102399.63;4845983;29;20462;-96
2022/01/16 03:40:27;;;;;;;7.50;4.20;;;;;;;8.34;nan;102403.22;4882821;29;20518;-96
2022/01/16 03:43:15;;;;;;;9.20;4.73;;;;;;;8.21;nan;102374.34;4867061;29;20463;-95
2022/01/16 03:45:48;;;;;;;10.23;4.27;;;;;;;8.18;nan;102371.91;4888678;29;21211;-95
2022/01/16 03:52:30;;;;;;;8.40;4.37;;;;;;;8.25;nan;102392.16;4888822;29;20463;-96
2022/01/16 03:58:44;;;;;;;7.47;3.97;;;;;;;8.16;nan;102375.75;4884599;29;20949;-94
2022/01/16 04:01:21;;;;;;;8.00;4.00;;;;;;;8.08;nan;102359.25;4866190;29;20483;-96
2022/01/16 04:03:53;;;;;;;9.93;3.70;;;;;;;8.07;nan;102354.81;4838523;29;20798;-92
2022/01/16 04:06:32;;;;;;;8.10;4.10;;;;;;;8.08;nan;102371.00;4852280;29;20919;-92
2022/01/16 04:09:10;;;;;;;5.40;3.60;;;;;;;8.18;nan;102380.06;4852115;29;20454;-96
2022/01/16 04:11:56;;;;;;;7.07;3.50;;;;;;;8.20;nan;102394.41;4851917;29;20462;-95
2022/01/16 04:17:39;;;;;;;9.80;4.10;;;;;;;8.20;nan;102401.72;4857264;29;20797;-95
2022/01/16 04:24:02;;;;;;;8.00;3.83;;;;;;;7.98;nan;102367.38;4885522;29;20422;-94
2022/01/16 04:26:31;;;;;;;5.10;3.60;;;;;;;8.05;nan;102389.50;4852297;29;20458;-94
2022/01/16 04:29:18;;;;;;;7.17;3.83;;;;;;;8.10;nan;102412.56;4836632;29;20508;-96
2022/01/16 04:32:01;;;;;;;6.50;3.60;;;;;;;8.06;nan;102415.72;4865875;29;20516;-92
2022/01/16 04:34:34;;;;;;;10.67;4.03;;;;;;;8.07;nan;102445.53;4848766;29;20463;-93
2022/01/16 04:37:03;;;;;;;8.20;4.30;;;;;;;8.05;nan;102436.63;4847899;29;20459;-94
2022/01/16 04:39:36;;;;;;;7.27;4.00;;;;;;;8.04;nan;102443.09;4848319;29;20459;-92
2022/01/16 04:45:17;;;;;;;10.50;4.33;;;;;;;8.07;nan;102445.53;4850897;29;20460;-94
2022/01/16 04:47:47;;;;;;;16.33;3.97;;;;;;;8.07;nan;102437.38;4863292;29;20470;-92
2022/01/16 04:50:15;;;;;;;7.63;3.67;;;;;;;8.00;nan;102425.28;4833693;29;20926;-91
2022/01/16 04:52:46;;;;;;;5.47;4.10;;;;;;;7.93;nan;102422.22;4848256;29;20432;-94
2022/01/16 04:55:22;;;;;;;10.03;3.93;;;;;;;7.95;nan;102433.84;4847782;29;20460;-92
2022/01/16 04:57:58;;;;;;;6.80;3.53;;;;;;;7.85;nan;102410.31;4861132;29;20478;-91
2022/01/16 05:00:26;;;;;;;8.03;4.17;;;;;;;7.86;nan;102423.78;4856479;29;20491;-92
2022/01/16 05:03:17;;;;;;;11.80;3.97;;;;;;;7.93;nan;102435.84;4865578;29;20459;-94
2022/01/16 05:05:53;;;;;;;5.87;3.33;;;;;;;7.92;nan;102425.94;4866335;29;20447;-93
2022/01/16 05:08:32;;;;;;;6.63;3.77;;;;;;;7.90;nan;102436.09;4866245;29;20455;-96
2022/01/16 05:11:08;;;;;;;9.30;4.23;;;;;;;7.87;nan;102443.72;4850887;29;20444;-91
2022/01/16 05:16:38;;;;;;;7.60;3.67;;;;;;;7.88;nan;102429.09;4865813;29;20459;-91
2022/01/16 05:19:21;;;;;;;8.30;4.53;;;;;;;7.90;nan;102429.78;4867389;29;20459;-95
2022/01/16 05:22:19;;;;;;;12.43;5.40;;;;;;;7.94;nan;102459.34;4838954;29;20467;-96
2022/01/16 05:25:40;;;;;;;6.63;3.67;;;;;;;7.95;nan;102465.66;4869151;29;20878;-96
2022/01/16 05:28:50;;;;;;;6.30;3.60;;;;;;;7.94;nan;102456.63;4883397;29;20805;-94
2022/01/16 05:31:21;;;;;;;14.80;4.90;;;;;;;7.89;nan;102433.50;4881704;29;20540;-92
2022/01/16 05:34:03;;;;;;;6.03;3.40;;;;;;;7.81;nan;102423.31;4866171;29;20867;-93
2022/01/16 05:36:31;;;;;;;6.60;3.77;;;;;;;7.73;nan;102423.13;4881112;29;20451;-94
2022/01/16 05:39:28;;;;;;;5.40;3.40;;;;;;;7.87;nan;102454.59;4850734;29;20932;-92
2022/01/16 05:41:58;;;;;;;5.63;3.57;;;;;;;7.81;nan;102453.25;4866443;29;20522;-95
2022/01/16 05:44:36;;;;;;;9.57;3.57;;;;;;;7.79;nan;102451.66;4867192;29;20519;-94
2022/01/16 05:47:20;;;;;;;7.10;3.40;;;;;;;7.85;nan;102464.75;4853061;29;20427;-94
2022/01/16 05:49:57;;;;;;;6.17;4.10;;;;;;;7.74;nan;102441.19;4865415;29;20498;-94
2022/01/16 05:56:29;;;;;;;8.63;3.67;;;;;;;7.77;nan;102440.03;4863180;29;20464;-96
2022/01/16 05:59:34;;;;;;;9.83;4.10;;;;;;;7.93;nan;102473.09;4849682;29;20475;-95
2022/01/16 06:02:17;;;;;;;5.80;3.50;;;;;;;7.96;nan;102479.13;4861925;29;20983;-95
2022/01/16 06:05:23;;;;;;;11.37;4.30;;;;;;;7.94;nan;102474.81;4847907;29;20488;-96
2022/01/16 06:08:06;;;;;;;10.03;4.03;;;;;;;7.82;nan;102471.31;4868503;29;20452;-95
2022/01/16 06:10:39;;;;;;;4.77;3.43;;;;;;;7.84;nan;102479.34;4833460;29;20459;-92
2022/01/16 06:16:48;;;;;;;5.37;3.10;;;;;;;7.77;nan;102472.72;4866429;29;20395;-93
2022/01/16 06:19:21;;;;;;;6.73;3.47;;;;;;;7.84;nan;102473.91;4833161;29;20440;-92
2022/01/16 06:21:49;;;;;;;11.20;3.30;;;;;;;7.78;nan;102480.75;4859039;29;20476;-94
2022/01/16 06:24:23;;;;;;;5.87;3.40;;;;;;;7.82;nan;102493.09;4885124;24;20487;-93
2022/01/16 06:27:44;;;;;;;6.53;3.70;;;;;;;7.83;nan;102472.19;4832705;29;20848;-95
2022/01/16 06:30:31;;;;;;;6.77;3.27;;;;;;;7.76;nan;102492.75;4846895;29;20460;-91
2022/01/16 06:32:59;;;;;;;18.20;4.60;;;;;;;7.69;nan;102486.13;4846619;29;20784;-93
2022/01/16 06:35:47;;;;;;;14.80;4.20;;;;;;;7.75;nan;102510.94;4831048;29;20456;-94
2022/01/16 06:38:14;;;;;;;8.33;3.70;;;;;;;7.72;nan;102502.16;4845961;29;20451;-93
2022/01/16 06:40:45;;;;;;;6.47;4.07;;;;;;;7.68;nan;102492.56;4846303;29;20484;-93
2022/01/16 06:43:13;;;;;;;8.30;4.20;;;;;;;7.67;nan;102491.69;4846295;29;20468;-94
2022/01/16 06:45:54;;;;;;;9.53;5.07;;;;;;;7.74;nan;102495.59;4830777;29;20468;-91
2022/01/16 06:48:37;;;;;;;8.37;4.60;;;;;;;7.68;nan;102492.56;4831607;29;20454;-93
2022/01/16 06:51:20;;;;;;;9.77;5.80;;;;;;;7.56;nan;102473.56;4830350;29;20504;-94
2022/01/16 06:53:49;;;;;;;10.23;5.70;;;;;;;7.60;nan;102480.47;4831956;29;20444;-93
2022/01/16 06:56:20;;;;;;;9.33;5.67;;;;;;;7.72;nan;102499.44;4831770;29;20455;-93
2022/01/16 06:58:49;;;;;;;10.63;5.40;;;;;;;7.58;nan;102496.06;4828291;29;20479;-92
2022/01/16 07:02:02;;;;;;;15.67;5.63;;;;;;;7.69;nan;102518.78;4820778;29;20865;-92
2022/01/16 07:04:35;;;;;;;8.00;4.80;;;;;;;7.67;nan;102520.78;4862164;29;20467;-92
2022/01/16 07:07:13;;;;;;;8.43;4.43;;;;;;;7.64;nan;102519.19;4815448;29;20464;-94
2022/01/16 07:09:55;;;;;;;6.17;3.97;;;;;;;7.54;nan;102529.09;4820656;29;20456;-94
2022/01/16 07:12:23;;;;;;;10.30;5.10;;;;;;;7.50;nan;102525.78;4815914;29;20451;-94
2022/01/16 07:19:16;;;;;;;8.87;4.50;;;;;;;7.56;nan;102549.75;4873202;29;20423;-96
2022/01/16 07:22:23;;;;;;;9.40;4.40;;;;;;;7.55;nan;102561.63;4854240;29;20498;-94
2022/01/16 07:29:14;;;;;;;9.50;5.17;;;;;;;7.57;nan;102559.63;4850668;29;20484;-95
2022/01/16 07:31:56;;;;;;;10.63;5.00;;;;;;;7.49;nan;102555.84;4835447;29;20467;-96
2022/01/16 07:34:38;;;;;;;10.30;4.23;;;;;;;7.43;nan;102551.78;4809539;29;20528;-95
2022/01/16 07:37:23;;;;;;;12.77;6.20;;;;;;;7.44;nan;102561.66;4800984;29;20501;-93
2022/01/16 07:40:27;;;;;;;10.50;5.10;;;;;;;7.51;nan;102571.03;4849880;29;20566;-94
2022/01/16 07:43:29;;;;;;;10.03;6.27;;;;;;;7.51;nan;102579.19;4848718;29;20463;-92
2022/01/16 07:45:58;;;;;;;9.10;5.33;;;;;;;7.40;nan;102572.94;4864172;29;20447;-92
2022/01/16 07:48:53;;;;;;;11.73;5.00;;;;;;;7.51;nan;102594.66;4834270;29;20441;-93
2022/01/16 07:51:42;;;;;;;8.53;4.67;;;;;;;7.47;nan;102582.31;4845837;29;20941;-94
2022/01/16 07:54:10;;;;;;;8.80;5.00;;;;;;;7.40;nan;102579.22;4848240;29;20469;-89
2022/01/16 07:56:56;;;;;;;11.03;5.33;;;;;;;7.49;nan;102589.38;4875932;29;20863;-92
2022/01/16 07:59:42;;;;;;;11.43;4.70;;;;;;;7.43;nan;102589.88;4848669;29;21032;-93
2022/01/16 08:02:35;;;;;;;6.80;4.40;;;;;;;7.52;nan;102608.13;4833712;29;20503;-93
2022/01/16 08:05:11;;;;;;;7.37;4.70;;;;;;;7.53;nan;102609.84;4849119;29;20524;-92
2022/01/16 08:08:03;;;;;;;8.00;5.40;;;;;;;7.50;nan;102618.28;4863620;29;20452;-93
2022/01/16 08:10:35;;;;;;;14.33;5.97;;;;;;;7.48;nan;102613.97;4863510;29;20471;-92
2022/01/16 08:13:05;;;;;;;8.30;5.23;;;;;;;7.48;nan;102616.69;4848155;29;20444;-92
2022/01/16 08:15:49;;;;;;;8.43;5.47;;;;;;;7.40;nan;102606.44;4832582;29;20452;-92
2022/01/16 08:18:20;;;;;;;9.90;5.03;;;;;;;7.46;nan;102619.53;4863144;29;20464;-92
2022/01/16 08:21:05;;;;;;;10.33;5.60;;;;;;;7.49;nan;102624.72;4848120;29;20494;-92
2022/01/16 08:23:45;;;;;;;15.50;5.90;;;;;;;7.41;nan;102613.59;4832072;29;20460;-96
2022/01/16 08:26:20;;;;;;;12.83;6.17;;;;;;;7.53;nan;102622.59;4847675;29;20467;-93
2022/01/16 08:29:08;;;;;;;10.93;5.00;;;;;;;7.62;nan;102635.44;4828969;29;20453;-91
2022/01/16 08:31:38;;;;;;;10.50;5.50;;;;;;;7.65;nan;102642.50;4845814;29;20479;-89
2022/01/16 08:34:11;;;;;;;10.37;6.10;;;;;;;7.62;nan;102639.03;4847740;29;20460;-92
2022/01/16 08:37:16;;;;;;;11.67;6.30;;;;;;;7.67;nan;102633.22;4862626;29;20809;-91
2022/01/16 08:39:43;;;;;;;9.77;6.37;;;;;;;7.71;nan;102622.91;4869596;29;20475;-91
2022/01/16 08:42:15;;;;;;;13.30;6.43;;;;;;;7.77;nan;102631.44;4829528;29;20485;-92
2022/01/16 08:44:45;;;;;;;13.73;7.10;;;;;;;7.89;nan;102645.84;4846773;29;20496;-91
2022/01/16 08:47:18;;;;;;;13.40;6.60;;;;;;;7.97;nan;102649.66;4861252;29;20463;-90
2022/01/16 08:49:55;;;;;;;11.70;6.80;;;;;;;8.02;nan;102651.13;4833563;29;20486;-90
2022/01/16 08:52:23;;;;;;;17.77;7.13;;;;;;;8.05;nan;102640.84;4873004;29;20971;-90
2022/01/16 08:54:55;;;;;;;20.50;8.13;;;;;;;8.06;nan;102639.84;4846271;29;20467;-92
2022/01/16 08:57:23;;;;;;;13.23;7.83;;;;;;;8.21;nan;102657.59;4833275;29;20456;-91
2022/01/16 09:00:13;;;;;;;17.17;7.87;;;;;;;8.27;nan;102654.34;4829362;29;20475;-91
2022/01/16 09:02:43;;;;;;;19.80;9.10;;;;;;;8.30;nan;102654.06;4867879;29;20495;-91
2022/01/16 09:05:11;;;;;;;21.17;9.20;;;;;;;8.42;nan;102656.78;4828415;29;20513;-92
2022/01/16 09:07:44;;;;;;;18.40;8.23;;;;;;;8.62;nan;102673.13;4850737;29;20520;-92
2022/01/16 09:10:14;;;;;;;14.73;8.10;;;;;;;8.75;nan;102672.06;4843511;29;20505;-91
2022/01/16 09:12:43;;;;;;;12.60;7.20;;;;;;;8.79;nan;102663.47;4846677;29;22297;-91
2022/01/16 09:15:11;;;;;;;15.43;6.20;;;;;;;8.99;nan;102681.66;4843649;29;20461;-91
2022/01/16 09:17:56;;;;;;;18.13;6.73;;;;;;;9.19;nan;102671.72;4859031;29;20469;-91
2022/01/16 09:20:25;;;;;;;41.43;14.80;;;;;;;9.43;nan;102671.34;4854703;29;20584;-91
2022/01/16 09:23:13;;;;;;;18.70;10.37;;;;;;;9.80;nan;102681.66;4844913;29;20519;-91
2022/01/16 09:25:44;;;;;;;18.67;7.27;;;;;;;9.99;nan;102659.81;4846923;29;20459;-91
2022/01/16 09:28:13;;;;;;;16.37;8.30;;;;;;;10.31;nan;102673.22;4831492;29;20475;-91
2022/01/16 09:30:44;;;;;;;22.13;9.70;;;;;;;10.53;nan;102669.31;4846310;29;20458;-91
2022/01/16 09:33:21;;;;;;;20.97;9.53;;;;;;;10.68;nan;102662.38;4832134;29;20471;-91
2022/01/16 09:35:51;;;;;;;25.57;10.03;;;;;;;10.90;nan;102667.50;4831889;29;20807;-91
2022/01/16 09:38:46;;;;;;;20.77;9.93;;;;;;;11.18;nan;102684.81;4844446;29;20491;-91
2022/01/16 09:41:16;;;;;;;23.50;9.40;;;;;;;11.27;nan;102677.56;4844589;29;20479;-91
2022/01/16 09:43:45;;;;;;;26.07;9.77;;;;;;;11.35;nan;102672.22;4831607;29;20466;-92
2022/01/16 09:46:13;;;;;;;21.33;9.00;;;;;;;11.54;nan;102688.56;4831685;29;20459;-91
2022/01/16 09:48:43;;;;;;;23.03;9.40;;;;;;;11.62;nan;102685.88;4831162;29;20471;-91
2022/01/16 09:51:11;;;;;;;17.73;8.80;;;;;;;11.72;nan;102685.84;4856722;29;20794;-91
2022/01/16 09:53:47;;;;;;;34.50;10.53;;;;;;;11.80;nan;102682.34;4814665;29;20460;-92
2022/01/16 09:56:20;;;;;;;20.80;9.50;;;;;;;11.87;nan;102683.47;4822303;29;20807;-91
2022/01/16 09:58:57;;;;;;;27.23;10.80;;;;;;;11.97;nan;102684.25;4859833;29;20460;-92
2022/01/16 10:01:40;;;;;;;26.90;11.23;;;;;;;12.09;nan;102692.09;4828596;29;20484;-90
2022/01/16 10:04:39;;;;;;;16.80;8.90;;;;;;;12.31;nan;102706.38;4831819;29;20456;-91
2022/01/16 10:07:18;;;;;;;21.77;10.03;;;;;;;12.38;nan;102701.97;4842142;29;20498;-93
2022/01/16 10:10:15;;;;;;;19.80;10.13;;;;;;;12.55;nan;102705.69;4832254;29;20462;-92
2022/01/16 10:13:22;;;;;;;25.93;10.03;;;;;;;12.50;nan;102687.00;4859185;29;20451;-91
2022/01/16 10:16:00;;;;;;;18.47;9.97;;;;;;;12.68;nan;102697.94;4859739;29;20471;-92
2022/01/16 10:18:52;;;;;;;25.60;9.77;;;;;;;12.86;nan;102717.97;4831054;29;20467;-93
2022/01/16 10:21:42;;;;;;;23.97;10.00;;;;;;;12.82;nan;102705.59;4842521;29;20500;-93
2022/01/16 10:44:23;;;;;;;20.70;8.63;;;;;;;13.86;nan;102741.16;4837405;29;20509;-92
2022/01/16 11:19:09;;;;;;;12.67;5.80;;;;;;;15.50;nan;102725.38;4842914;29;20450;-91
2022/01/16 11:21:43;;;;;;;13.73;6.33;;;;;;;15.63;nan;102722.94;4841722;29;20548;-90
2022/01/16 11:28:06;;;;;;;11.80;6.20;;;;;;;15.82;nan;102728.03;4861932;29;20432;-93
2022/01/16 11:30:49;;;;;;;17.80;7.20;;;;;;;15.89;nan;102726.28;4859682;29;20467;-92
2022/01/16 11:33:25;;;;;;;16.83;5.93;;;;;;;16.02;nan;102727.59;4826750;29;20510;-92
2022/01/16 11:36:17;;;;;;;18.60;6.40;;;;;;;16.14;nan;102728.91;4863291;29;20456;-89
2022/01/16 11:38:54;;;;;;;19.33;6.83;;;;;;;16.24;nan;102729.50;4858181;29;20448;-93
2022/01/16 11:41:39;;;;;;;16.77;5.83;;;;;;;16.26;nan;102724.69;4847091;29;20964;-93
2022/01/16 11:44:28;;;;;;;15.83;5.00;;;;;;;16.36;nan;102730.81;4845856;29;20471;-95
2022/01/16 11:47:28;;;;;;;21.67;6.77;;;;;;;16.35;nan;102718.06;4809306;29;20961;-91
2022/01/16 11:50:07;;;;;;;13.07;5.00;;;;;;;16.42;nan;102708.00;4819060;29;20959;-92
2022/01/16 11:53:25;;;;;;;25.10;7.00;;;;;;;16.52;nan;102711.38;4811813;29;20465;-95
2022/01/16 11:56:59;;;;;;;16.00;5.33;;;;;;;16.72;nan;102721.94;4773221;30;20955;-94
2022/01/16 12:00:08;;;;;;;11.20;5.10;;;;;;;16.73;nan;102694.16;4773668;30;20463;-94
2022/01/16 12:07:12;;;;;;;14.67;4.90;;;;;;;16.99;nan;102710.28;4792462;30;20489;-94
2022/01/16 12:18:36;;;;;;;;;;;;;;;;;;;;;
2022/01/16 13:49:56;;;;;;;15.97;8.03;;;;;;;18.58;nan;102577.50;4863366;29;20404;-88
2022/01/16 13:52:29;;;;;;;25.13;10.93;;;;;;;18.66;nan;102579.28;4843127;29;20544;-88
2022/01/16 13:55:10;;;;;;;71.63;35.23;;;;;;;18.82;nan;102587.28;4852694;29;20462;-88
2022/01/16 14:04:58;;;;;;;20.37;11.50;;;;;;;18.95;nan;102577.13;4822961;29;20881;-88
2022/01/16 14:07:27;;;;;;;16.80;8.37;;;;;;;18.99;nan;102585.88;4843660;29;20462;-88
2022/01/16 14:09:57;;;;;;;17.83;8.07;;;;;;;19.02;nan;102593.81;4793208;29;20457;-88
2022/01/16 14:12:26;;;;;;;22.10;11.77;;;;;;;19.00;nan;102586.75;4792645;29;20453;-87
2022/01/16 14:14:53;;;;;;;17.00;7.60;;;;;;;18.95;nan;102570.72;4807378;29;20454;-86
2022/01/16 14:17:39;;;;;;;19.83;11.50;;;;;;;19.06;nan;102586.75;4792885;29;20464;-88
2022/01/16 14:23:55;;;;;;;11.90;5.87;;;;;;;19.07;nan;102590.38;4806452;29;20499;-87
2022/01/16 14:26:25;;;;;;;12.10;6.73;;;;;;;19.07;nan;102582.06;4768301;30;20937;-88
2022/01/16 14:29:06;;;;;;;16.10;9.90;;;;;;;18.98;nan;102586.94;4716690;30;20834;-88
2022/01/16 14:31:56;;;;;;;39.33;26.37;;;;;;;19.00;nan;102604.22;4781081;29;20469;-88
2022/01/16 14:34:29;;;;;;;26.83;16.20;;;;;;;18.89;nan;102593.69;4807094;29;20462;-87
2022/01/16 14:36:58;;;;;;;26.80;11.60;;;;;;;18.87;nan;102584.72;4795622;29;20532;-88
2022/01/16 14:39:59;;;;;;;25.93;11.87;;;;;;;18.90;nan;102584.34;4782534;29;20453;-88
2022/01/16 14:42:45;;;;;;;13.70;8.83;;;;;;;18.97;nan;102602.72;4793722;29;20906;-88
2022/01/16 14:45:34;;;;;;;21.60;10.67;;;;;;;18.78;nan;102588.75;4794852;29;20526;-88
2022/01/16 14:48:11;;;;;;;37.17;25.60;;;;;;;18.80;nan;102592.16;4784109;29;20523;-88
2022/01/16 14:50:46;;;;;;;25.00;18.10;;;;;;;18.86;nan;102600.50;4791053;29;20977;-88
2022/01/16 14:53:20;;;;;;;19.33;12.70;;;;;;;18.88;nan;102592.00;4790516;29;20523;-90
2022/01/16 14:55:49;;;;;;;17.53;10.63;;;;;;;18.78;nan;102580.44;4716286;30;20471;-90
2022/01/16 14:58:23;;;;;;;12.27;4.63;;;;;;;18.74;nan;102584.66;4713712;30;20449;-89
2022/01/16 15:00:58;;;;;;;20.33;10.87;;;;;;;18.62;nan;102587.16;4773473;30;20982;-89
2022/01/16 15:06:29;;;;;;;21.93;11.50;;;;;;;18.73;nan;102599.56;4767953;30;20466;-89
2022/01/16 19:47:28;;;;;;;;;;;;;;;;;;;;;
2022/01/16 19:50:51;;;;;;;28.60;12.40;;;;;;;11.02;nan;102804.97;4778967;30;20447;-89
2022/01/16 19:58:04;;;;;;;21.90;11.87;;;;;;;10.88;nan;102800.81;4791488;30;20414;-88
2022/01/16 20:01:00;;;;;;;20.67;12.60;;;;;;;10.77;nan;102781.84;4746562;30;20464;-89
2022/01/16 20:03:45;;;;;;;24.90;12.70;;;;;;;10.81;nan;102804.28;4781545;29;20564;-87
2022/01/16 20:06:15;;;;;;;28.83;13.07;;;;;;;10.80;nan;102803.41;4809341;29;20462;-87
2022/01/16 20:08:55;;;;;;;21.70;12.80;;;;;;;10.73;nan;102799.53;4759994;30;20520;-88
2022/01/16 20:11:29;;;;;;;28.83;13.80;;;;;;;10.68;nan;102793.63;4729102;30;20874;-87
2022/01/16 20:14:14;;;;;;;23.40;13.67;;;;;;;10.68;nan;102804.56;4761793;30;20427;-87
2022/01/16 20:31:59;;;;;;;24.23;12.20;;;;;;;10.33;nan;102799.66;4806257;29;20402;-88
2022/01/16 20:34:38;;;;;;;28.00;13.83;;;;;;;10.35;nan;102812.19;4792494;29;20466;-89
2022/01/16 20:37:09;;;;;;;28.80;14.17;;;;;;;10.32;nan;102809.72;4776366;29;20474;-89
2022/01/16 20:39:38;;;;;;;26.83;15.67;;;;;;;10.31;nan;102818.06;4772316;29;20565;-88
2022/01/16 20:42:07;;;;;;;30.70;17.47;;;;;;;10.30;nan;102822.66;4780814;29;20538;-89
2022/01/16 20:44:44;;;;;;;34.97;16.63;;;;;;;10.18;nan;102807.38;4761435;29;20466;-88
2022/01/16 20:48:03;;;;;;;32.80;16.50;;;;;;;10.28;nan;102818.34;4828290;29;20532;-86
2022/01/16 20:50:40;;;;;;;28.17;16.60;;;;;;;10.13;nan;102796.00;4841454;29;20960;-89
2022/01/16 20:53:11;;;;;;;39.93;18.77;;;;;;;10.24;nan;102814.16;4809702;29;20500;-89
2022/01/16 20:55:58;;;;;;;32.03;15.93;;;;;;;10.18;nan;102815.56;4801012;29;20961;-90
2022/01/16 21:03:03;;;;;;;32.20;16.03;;;;;;;10.11;nan;102824.47;4789883;29;20446;-89
2022/01/16 21:05:35;;;;;;;36.00;16.37;;;;;;;9.99;nan;102812.78;4804716;29;21044;-88
2022/01/16 21:47:20;;;;;;;41.63;21.27;;;;;;;9.36;nan;102814.81;4715599;30;20472;-88
2022/01/16 21:58:38;;;;;;;36.23;16.10;;;;;;;9.48;nan;102835.53;3948294;30;25255496;-89
2022/01/16 22:01:25;;;;;;;32.30;15.70;;;;;;;9.43;nan;102837.81;4773949;30;20463;-89
2022/01/16 22:19:22;;;;;;;40.23;18.30;;;;;;;9.18;nan;102849.16;4767764;30;20447;-89
2022/01/16 22:22:11;;;;;;;33.30;16.80;;;;;;;9.08;nan;102834.56;4731270;30;20484;-91
2022/01/16 23:48:52;;;;;;;29.40;12.80;;;;;;;8.46;nan;102813.56;4732598;30;20469;-90
2022/01/16 23:51:24;;;;;;;23.03;12.40;;;;;;;8.48;nan;102808.81;4731795;29;20474;-89
2022/01/16 23:53:54;;;;;;;23.60;13.07;;;;;;;8.47;nan;102815.28;4760556;29;20462;-88
2022/01/16 23:56:25;;;;;;;23.67;11.87;;;;;;;8.51;nan;102814.03;4774639;29;20474;-93
